createdAt,value
2022-12-23T00:02:52.637Z,95.11
2022-12-23T00:06:55.418Z,94.90
2022-12-23T00:10:59.525Z,94.78
2022-12-23T00:15:07.026Z,94.78
2022-12-23T00:19:09.613Z,95.22
2022-12-23T00:23:12.235Z,94.76
2022-12-23T00:27:16.214Z,94.90
2022-12-23T00:31:21.120Z,94.86
2022-12-23T00:35:23.936Z,94.83
2022-12-23T00:39:44.351Z,95.03
2022-12-23T00:43:48.287Z,95.19
2022-12-23T00:48:14.078Z,95.18
2022-12-23T00:52:16.711Z,95.08
2022-12-23T00:56:19.325Z,95.23
2022-12-23T01:00:44.324Z,95.36
2022-12-23T01:05:04.519Z,95.30
2022-12-23T01:09:07.147Z,95.60
2022-12-23T01:13:09.916Z,95.66
2022-12-23T01:17:13.992Z,95.26
2022-12-23T01:21:16.664Z,95.76
2022-12-23T01:25:19.276Z,95.38
2022-12-23T01:29:22.048Z,95.83
2022-12-23T01:33:26.016Z,95.60
2022-12-23T01:37:28.648Z,95.89
2022-12-23T01:41:51.128Z,95.98
2022-12-23T01:45:54.352Z,95.84
2022-12-23T01:50:03.586Z,95.73
2022-12-23T01:54:06.319Z,95.90
2022-12-23T01:58:13.094Z,95.78
2022-12-23T02:02:41.756Z,95.80
2022-12-23T02:07:05.171Z,95.74
2022-12-23T02:11:31.716Z,95.92
2022-12-23T02:15:57.528Z,95.78
2022-12-23T02:20:36.987Z,95.70
2022-12-23T02:25:16.125Z,95.78
2022-12-23T02:29:39.415Z,95.82
2022-12-23T02:33:57.569Z,95.64
2022-12-23T02:38:08.702Z,95.72
2022-12-23T02:42:17.627Z,95.86
2022-12-23T02:46:26.673Z,95.65
2022-12-23T02:50:33.655Z,96.07
2022-12-23T02:54:41.925Z,96.14
2022-12-23T02:59:00.012Z,96.03
2022-12-23T03:03:02.724Z,96.16
2022-12-23T03:07:09.702Z,96.13
2022-12-23T03:11:16.493Z,95.80
2022-12-23T03:15:30.181Z,96.14
2022-12-23T03:19:39.784Z,95.85
2022-12-23T03:23:55.275Z,95.77
2022-12-23T03:28:05.845Z,95.98
2022-12-23T03:32:11.995Z,96.04
2022-12-23T03:36:19.195Z,96.24
2022-12-23T03:40:25.970Z,95.93
2022-12-23T03:44:32.403Z,96.13
2022-12-23T03:48:38.614Z,95.98
2022-12-23T03:52:44.750Z,96.16
2022-12-23T03:56:54.995Z,96.21
2022-12-23T04:01:06.425Z,96.31
2022-12-23T04:05:20.367Z,96.29
2022-12-23T04:09:26.814Z,96.57
2022-12-23T04:13:32.029Z,96.39
2022-12-23T04:17:35.150Z,96.28
2022-12-23T04:21:38.144Z,96.54
2022-12-23T04:25:40.752Z,96.95
2022-12-23T04:29:45.316Z,96.77
2022-12-23T04:33:47.968Z,96.49
2022-12-23T04:37:50.631Z,96.78
2022-12-23T04:41:53.270Z,96.65
2022-12-23T04:45:57.241Z,96.62
2022-12-23T04:49:59.867Z,96.81
2022-12-23T04:54:02.512Z,96.85
2022-12-23T04:58:05.135Z,96.85
2022-12-23T05:02:09.666Z,96.83
2022-12-23T05:06:12.402Z,96.73
2022-12-23T05:10:15.034Z,96.46
2022-12-23T05:14:17.785Z,96.86
2022-12-23T05:18:22.980Z,96.89
2022-12-23T05:22:25.721Z,96.50
2022-12-23T05:26:28.440Z,96.76
2022-12-23T05:30:31.344Z,96.83
2022-12-23T05:34:35.313Z,96.86
2022-12-23T05:38:38.262Z,96.82
2022-12-23T05:42:40.952Z,96.82
2022-12-23T05:46:43.667Z,96.76
2022-12-23T05:50:50.584Z,96.83
2022-12-23T05:54:53.251Z,96.71
2022-12-23T05:58:55.896Z,96.70
2022-12-23T06:02:58.750Z,96.95
2022-12-23T06:07:02.876Z,96.52
2022-12-23T06:11:06.366Z,96.80
2022-12-23T06:15:09.725Z,96.92
2022-12-23T06:19:12.335Z,96.77
2022-12-23T06:23:16.602Z,97.02
2022-12-23T06:27:19.941Z,96.77
2022-12-23T06:31:22.595Z,96.72
2022-12-23T06:35:25.481Z,97.01
2022-12-23T06:39:29.493Z,96.99
2022-12-23T06:43:32.138Z,96.83
2022-12-23T06:47:34.764Z,96.55
2022-12-23T06:51:37.729Z,96.87
2022-12-23T06:55:41.783Z,96.64
2022-12-23T06:59:44.661Z,96.35
2022-12-23T07:03:47.517Z,96.49
2022-12-23T07:07:50.241Z,96.47
2022-12-23T07:11:54.329Z,96.68
2022-12-23T07:15:56.954Z,96.26
2022-12-23T07:19:59.861Z,96.37
2022-12-23T07:24:02.553Z,96.60
2022-12-23T07:28:06.636Z,96.39
2022-12-23T07:32:09.403Z,96.41
2022-12-23T07:36:12.045Z,96.32
2022-12-23T07:40:14.908Z,96.41
2022-12-23T07:44:18.952Z,96.31
2022-12-23T07:48:21.585Z,96.26
2022-12-23T07:52:24.251Z,96.51
2022-12-23T07:56:27.341Z,96.50
2022-12-23T08:00:31.366Z,96.29
2022-12-23T08:04:34.004Z,96.35
2022-12-23T08:08:36.894Z,96.17
2022-12-23T08:12:39.561Z,96.21
2022-12-23T08:16:44.521Z,96.30
2022-12-23T08:20:55.056Z,96.20
2022-12-23T08:24:59.656Z,96.10
2022-12-23T08:29:02.484Z,96.08
2022-12-23T08:33:06.661Z,96.14
2022-12-23T08:37:09.390Z,96.02
2022-12-23T08:41:13.361Z,95.68
2022-12-23T08:45:16.882Z,95.63
2022-12-23T08:49:20.912Z,95.46
2022-12-23T08:53:23.654Z,95.31
2022-12-23T08:57:26.303Z,95.26
2022-12-23T09:01:30.779Z,94.66
2022-12-23T09:05:39.911Z,94.90
2022-12-23T09:09:42.561Z,95.64
2022-12-23T09:13:45.280Z,94.48
2022-12-23T09:17:47.914Z,94.32
2022-12-23T09:21:52.135Z,94.58
2022-12-23T09:25:54.939Z,94.88
2022-12-23T09:29:57.750Z,94.98
2022-12-23T09:34:00.373Z,95.10
2022-12-23T09:38:04.642Z,94.83
2022-12-23T09:42:16.089Z,95.08
2022-12-23T09:46:22.876Z,95.00
2022-12-23T09:50:29.781Z,95.08
2022-12-23T09:54:40.547Z,95.08
2022-12-23T09:58:48.019Z,95.17
2022-12-23T10:03:16.142Z,95.26
2022-12-23T10:07:26.283Z,95.48
2022-12-23T10:11:33.433Z,95.48
2022-12-23T10:15:39.851Z,95.48
2022-12-23T10:19:44.244Z,95.35
2022-12-23T10:23:52.210Z,95.26
2022-12-23T10:27:56.646Z,95.17
2022-12-23T10:32:15.386Z,95.18
2022-12-23T10:36:24.671Z,95.06
2022-12-23T10:40:34.095Z,94.82
2022-12-23T10:45:04.633Z,94.41
2022-12-23T10:49:20.857Z,94.38
2022-12-23T10:53:36.946Z,93.91
2022-12-23T10:57:39.959Z,94.17
2022-12-23T11:01:47.621Z,94.09
2022-12-23T11:05:53.544Z,93.82
2022-12-23T11:09:59.787Z,93.98
2022-12-23T11:14:02.582Z,94.19
2022-12-23T11:18:16.976Z,94.11
2022-12-23T11:22:26.356Z,94.15
2022-12-23T11:26:29.173Z,94.26
2022-12-23T11:30:36.609Z,94.38
2022-12-23T11:34:45.585Z,94.55
2022-12-23T11:38:51.749Z,94.67
2022-12-23T11:42:58.650Z,94.70
2022-12-23T11:47:19.746Z,94.77
2022-12-23T11:51:27.818Z,94.88
2022-12-23T11:55:33.765Z,95.01
2022-12-23T11:59:39.825Z,94.88
2022-12-23T12:03:48.261Z,95.04
2022-12-23T12:07:53.100Z,95.05
2022-12-23T12:12:04.366Z,95.12
2022-12-23T12:16:20.930Z,95.11
2022-12-23T12:20:30.088Z,95.16
2022-12-23T12:24:39.487Z,95.36
2022-12-23T12:28:45.029Z,95.33
2022-12-23T12:32:54.429Z,95.31
2022-12-23T12:37:01.844Z,95.34
2022-12-23T12:41:14.781Z,95.34
2022-12-23T12:45:21.845Z,95.36
2022-12-23T12:49:32.506Z,95.34
2022-12-23T12:53:39.050Z,95.38
2022-12-23T12:57:43.127Z,95.36
2022-12-23T13:02:06.137Z,95.33
2022-12-23T13:06:21.978Z,95.34
2022-12-23T13:10:35.352Z,95.32
2022-12-23T13:14:52.766Z,95.39
2022-12-23T13:19:01.633Z,95.26
2022-12-23T13:23:41.690Z,95.31
2022-12-23T13:27:41.469Z,95.51
2022-12-23T13:31:50.722Z,95.91
2022-12-23T13:36:14.254Z,95.75
2022-12-23T13:40:39.050Z,95.49
2022-12-23T13:44:42.133Z,95.47
2022-12-23T13:48:54.652Z,95.42
2022-12-23T13:53:13.272Z,95.55
2022-12-23T13:57:27.936Z,95.87
2022-12-23T14:01:36.906Z,96.38
2022-12-23T14:05:44.877Z,96.17
2022-12-23T14:09:52.854Z,96.31
2022-12-23T14:14:00.495Z,96.40
2022-12-23T14:18:17.813Z,95.84
2022-12-23T14:22:45.253Z,95.67
2022-12-23T14:27:12.953Z,95.39
2022-12-23T14:31:31.227Z,96.17
2022-12-23T14:35:55.475Z,96.01
2022-12-23T14:39:59.616Z,95.90
2022-12-23T14:44:02.864Z,95.84
2022-12-23T14:49:09.638Z,95.55
2022-12-23T14:53:24.762Z,95.65
2022-12-23T14:57:32.688Z,95.60
2022-12-23T15:01:39.783Z,95.40
2022-12-23T15:05:43.907Z,95.21
2022-12-23T15:09:57.192Z,95.34
2022-12-23T15:14:10.433Z,95.68
2022-12-23T15:18:14.684Z,95.91
2022-12-23T15:22:24.143Z,95.89
2022-12-23T15:26:33.638Z,96.14
2022-12-23T15:30:48.646Z,96.11
2022-12-23T15:34:53.428Z,96.10
2022-12-23T15:38:56.175Z,95.99
2022-12-23T15:42:59.341Z,96.04
2022-12-23T15:47:03.651Z,96.01
2022-12-23T15:51:09.845Z,95.92
2022-12-23T15:55:15.939Z,95.81
2022-12-23T15:59:24.045Z,95.69
2022-12-23T16:03:33.874Z,95.36
2022-12-23T16:07:38.811Z,95.37
2022-12-23T16:11:52.402Z,95.33
2022-12-23T16:15:56.734Z,95.14
2022-12-23T16:20:26.337Z,95.30
2022-12-23T16:24:30.369Z,95.38
2022-12-23T16:28:45.197Z,95.62
2022-12-23T16:32:54.928Z,95.41
2022-12-23T16:36:58.910Z,95.36
2022-12-23T16:41:02.171Z,95.26
2022-12-23T16:45:05.507Z,94.82
2022-12-23T16:49:13.778Z,94.33
2022-12-23T16:53:19.209Z,94.14
2022-12-23T16:57:22.106Z,93.99
2022-12-23T17:01:28.285Z,94.21
2022-12-23T17:05:31.563Z,94.11
2022-12-23T17:09:35.891Z,93.78
2022-12-23T17:13:39.388Z,94.12
2022-12-23T17:17:42.336Z,94.17
2022-12-23T17:21:47.127Z,94.34
2022-12-23T17:25:52.157Z,94.41
2022-12-23T17:29:55.634Z,94.56
2022-12-23T17:33:58.400Z,94.62
2022-12-23T17:38:01.817Z,94.58
2022-12-23T17:42:06.030Z,94.37
2022-12-23T17:46:13.992Z,94.10
2022-12-23T17:50:16.690Z,93.97
2022-12-23T17:54:23.629Z,94.14
2022-12-23T17:58:27.707Z,94.41
2022-12-23T18:02:35.316Z,94.34
2022-12-23T18:06:38.189Z,94.35
2022-12-23T18:10:41.839Z,94.27
2022-12-23T18:14:45.986Z,94.05
2022-12-23T18:18:48.701Z,93.73
2022-12-23T18:22:54.791Z,93.91
2022-12-23T18:26:57.540Z,94.00
2022-12-23T18:31:01.613Z,93.94
2022-12-23T18:35:04.668Z,93.94
2022-12-23T18:39:07.335Z,94.17
2022-12-23T18:43:19.343Z,94.08
2022-12-23T18:47:23.351Z,93.93
2022-12-23T18:51:26.067Z,93.88
2022-12-23T18:55:31.186Z,93.92
2022-12-23T18:59:37.574Z,94.25
2022-12-23T19:03:41.501Z,94.30
2022-12-23T19:07:44.791Z,94.36
2022-12-23T19:11:49.357Z,94.46
2022-12-23T19:15:52.470Z,94.28
2022-12-23T19:19:56.500Z,94.14
2022-12-23T19:23:59.314Z,94.54
2022-12-23T19:28:01.953Z,94.25
2022-12-23T19:32:04.784Z,94.21
2022-12-23T19:36:13.699Z,93.98
2022-12-23T19:40:16.889Z,93.84
2022-12-23T19:44:19.748Z,93.60
2022-12-23T19:48:22.406Z,93.51
2022-12-23T19:52:26.492Z,93.48
2022-12-23T19:56:30.426Z,93.40
2022-12-23T20:00:33.111Z,93.10
2022-12-23T20:04:35.718Z,93.25
2022-12-23T20:08:40.584Z,93.14
2022-12-23T20:12:47.268Z,92.94
2022-12-23T20:16:49.981Z,92.87
2022-12-23T20:20:52.679Z,92.84
2022-12-23T20:24:57.099Z,92.66
2022-12-23T20:29:00.233Z,92.88
2022-12-23T20:33:02.860Z,92.67
2022-12-23T20:37:05.523Z,92.75
2022-12-23T20:41:12.101Z,92.65
2022-12-23T20:45:15.482Z,92.62
2022-12-23T20:49:18.121Z,92.67
2022-12-23T20:53:20.864Z,92.67
2022-12-23T20:57:29.429Z,92.76
2022-12-23T21:01:35.079Z,92.29
2022-12-23T21:05:37.856Z,92.30
2022-12-23T21:09:40.626Z,92.19
2022-12-23T21:13:48.256Z,92.04
2022-12-23T21:17:51.040Z,91.58
2022-12-23T21:21:54.323Z,91.48
2022-12-23T21:26:10.741Z,90.65
2022-12-23T21:30:15.185Z,90.60
2022-12-23T21:34:18.021Z,90.48
2022-12-23T21:38:21.755Z,90.11
2022-12-23T21:42:24.711Z,90.19
2022-12-23T21:46:30.968Z,90.17
2022-12-23T21:50:34.250Z,90.12
2022-12-23T21:54:37.158Z,90.24
2022-12-23T21:58:40.527Z,90.24
2022-12-23T22:02:44.501Z,90.42
2022-12-23T22:06:47.222Z,90.93
2022-12-23T22:10:49.929Z,91.18
2022-12-23T22:14:52.532Z,91.31
2022-12-23T22:18:57.945Z,91.45
2022-12-23T22:23:00.609Z,91.49
2022-12-23T22:27:03.373Z,91.38
2022-12-23T22:31:08.193Z,91.35
2022-12-23T22:35:12.426Z,91.53
2022-12-23T22:39:20.646Z,91.96
2022-12-23T22:43:24.017Z,92.04
2022-12-23T22:47:26.723Z,92.32
2022-12-23T22:51:32.443Z,92.40
2022-12-23T22:55:35.083Z,92.43
2022-12-23T22:59:38.205Z,92.59
2022-12-23T23:03:40.833Z,92.87
2022-12-23T23:07:44.809Z,92.96
2022-12-23T23:11:47.697Z,93.13
2022-12-23T23:15:50.548Z,92.97
2022-12-23T23:19:54.062Z,93.14
2022-12-23T23:23:58.157Z,93.29
2022-12-23T23:28:00.805Z,93.33
2022-12-23T23:32:04.166Z,93.25
2022-12-23T23:36:07.848Z,93.21
2022-12-23T23:40:12.804Z,93.12
2022-12-23T23:44:15.438Z,92.79
2022-12-23T23:48:18.857Z,93.01
2022-12-23T23:52:21.449Z,93.13
2022-12-23T23:56:27.295Z,93.26
